createdAt,value
2022-10-10T00:01:24.781Z,6.70
2022-10-10T00:03:27.485Z,6.60
2022-10-10T00:05:30.009Z,6.60
2022-10-10T00:07:32.490Z,6.60
2022-10-10T00:09:34.998Z,6.50
2022-10-10T00:11:37.470Z,6.60
2022-10-10T00:13:40.194Z,6.60
2022-10-10T00:15:45.701Z,6.60
2022-10-10T00:17:47.258Z,6.60
2022-10-10T00:19:49.745Z,6.50
2022-10-10T00:21:52.327Z,6.50
2022-10-10T00:23:55.740Z,6.50
2022-10-10T00:25:59.650Z,6.40
2022-10-10T00:28:02.786Z,6.40
2022-10-10T00:30:07.529Z,6.30
2022-10-10T00:32:10.028Z,6.20
2022-10-10T00:34:12.769Z,6.20
2022-10-10T00:36:15.359Z,6.10
2022-10-10T00:38:17.874Z,6.10
2022-10-10T00:40:20.893Z,6.10
2022-10-10T00:42:23.405Z,6.10
2022-10-10T00:44:27.333Z,6.20
2022-10-10T00:46:29.824Z,6.10
2022-10-10T00:48:33.285Z,6.10
2022-10-10T00:50:37.044Z,6.10
2022-10-10T00:52:39.554Z,6.10
2022-10-10T00:54:42.160Z,6.10
2022-10-10T00:56:46.625Z,6.10
2022-10-10T00:58:50.827Z,6.10
2022-10-10T01:00:54.298Z,6.10
2022-10-10T01:02:56.869Z,6.10
2022-10-10T01:04:59.387Z,6.10
2022-10-10T01:07:03.018Z,6.10
2022-10-10T01:09:05.545Z,6.10
2022-10-10T01:11:12.333Z,6.10
2022-10-10T01:13:17.466Z,6.10
2022-10-10T01:15:22.384Z,6.00
2022-10-10T01:17:26.894Z,6.00
2022-10-10T01:19:51.598Z,6.00
2022-10-10T01:21:56.225Z,5.90
2022-10-10T01:24:03.960Z,5.80
2022-10-10T01:26:12.570Z,5.90
2022-10-10T01:28:26.874Z,5.80
2022-10-10T01:30:29.509Z,5.70
2022-10-10T01:32:34.177Z,5.80
2022-10-10T01:34:39.173Z,5.80
2022-10-10T01:36:43.907Z,5.70
2022-10-10T01:38:50.153Z,5.80
2022-10-10T01:40:55.029Z,5.80
2022-10-10T01:42:58.602Z,5.90
2022-10-10T01:45:01.089Z,5.80
2022-10-10T01:47:03.632Z,5.80
2022-10-10T01:49:06.120Z,5.80
2022-10-10T01:51:30.586Z,5.80
2022-10-10T01:53:36.072Z,5.90
2022-10-10T01:55:58.488Z,5.80
2022-10-10T01:58:05.441Z,5.80
2022-10-10T02:00:09.942Z,5.80
2022-10-10T02:02:14.213Z,5.80
2022-10-10T02:06:37.786Z,5.80
2022-10-10T02:08:42.136Z,5.80
2022-10-10T02:10:46.587Z,5.70
2022-10-10T02:12:50.267Z,5.70
2022-10-10T02:14:53.973Z,5.70
2022-10-10T02:16:57.373Z,5.70
2022-10-10T02:19:00.096Z,5.60
2022-10-10T02:21:03.706Z,5.60
2022-10-10T02:23:07.102Z,5.50
2022-10-10T02:25:10.571Z,5.50
2022-10-10T02:27:14.886Z,5.50
2022-10-10T02:29:18.551Z,5.60
2022-10-10T02:31:23.526Z,5.50
2022-10-10T02:33:28.140Z,5.50
2022-10-10T02:35:32.468Z,5.40
2022-10-10T02:37:36.022Z,5.40
2022-10-10T02:39:40.323Z,5.30
2022-10-10T02:41:44.433Z,5.20
2022-10-10T02:43:47.925Z,5.10
2022-10-10T02:45:50.530Z,5.10
2022-10-10T02:47:53.342Z,5.00
2022-10-10T02:49:55.789Z,5.00
2022-10-10T02:51:58.266Z,5.00
2022-10-10T02:54:00.924Z,4.90
2022-10-10T02:56:03.525Z,4.90
2022-10-10T02:58:06.034Z,5.00
2022-10-10T03:00:09.696Z,5.00
2022-10-10T03:02:12.210Z,5.00
2022-10-10T03:04:14.822Z,5.00
2022-10-10T03:06:17.409Z,5.10
2022-10-10T03:08:19.995Z,5.10
2022-10-10T03:10:22.490Z,5.10
2022-10-10T03:12:25.098Z,5.20
2022-10-10T03:14:27.843Z,5.20
2022-10-10T03:16:30.319Z,5.20
2022-10-10T03:18:32.806Z,5.20
2022-10-10T03:20:35.318Z,5.20
2022-10-10T03:22:37.823Z,5.20
2022-10-10T03:24:40.272Z,5.20
2022-10-10T03:26:42.749Z,5.20
2022-10-10T03:28:45.350Z,5.30
2022-10-10T03:30:47.952Z,5.30
2022-10-10T03:32:50.602Z,5.30
2022-10-10T03:34:53.486Z,5.30
2022-10-10T03:36:55.933Z,5.30
2022-10-10T03:38:58.423Z,5.30
2022-10-10T03:41:00.914Z,5.30
2022-10-10T03:43:03.509Z,5.20
2022-10-10T03:45:06.781Z,5.20
2022-10-10T03:47:09.249Z,5.20
2022-10-10T03:49:11.889Z,5.20
2022-10-10T03:51:14.361Z,5.10
2022-10-10T03:53:16.858Z,5.10
2022-10-10T03:55:19.537Z,5.10
2022-10-10T03:57:22.311Z,5.20
2022-10-10T03:59:25.324Z,5.20
2022-10-10T04:01:28.349Z,5.20
2022-10-10T04:03:31.486Z,5.30
2022-10-10T04:05:45.817Z,5.30
2022-10-10T04:07:50.417Z,5.30
2022-10-10T04:09:53.373Z,5.30
2022-10-10T04:11:57.337Z,5.30
2022-10-10T04:14:00.069Z,5.30
2022-10-10T04:16:03.175Z,4.90
2022-10-10T04:18:05.703Z,5.30
2022-10-10T04:20:08.906Z,5.40
2022-10-10T04:22:11.477Z,5.30
2022-10-10T04:24:13.948Z,5.30
2022-10-10T04:26:16.451Z,5.30
2022-10-10T04:28:19.323Z,5.20
2022-10-10T04:30:21.900Z,5.20
2022-10-10T04:34:42.109Z,5.20
2022-10-10T04:36:44.620Z,5.30
2022-10-10T04:38:47.327Z,5.40
2022-10-10T04:40:50.002Z,5.40
2022-10-10T04:42:52.722Z,5.40
2022-10-10T04:44:55.393Z,5.30
2022-10-10T04:46:57.887Z,5.30
2022-10-10T04:49:00.341Z,5.20
2022-10-10T04:51:02.921Z,5.20
2022-10-10T04:53:05.405Z,5.20
2022-10-10T04:55:08.206Z,5.20
2022-10-10T04:57:10.780Z,5.20
2022-10-10T04:59:13.273Z,5.20
2022-10-10T05:01:15.783Z,5.20
2022-10-10T05:03:18.274Z,5.20
2022-10-10T05:05:20.775Z,5.20
2022-10-10T05:07:23.510Z,5.30
2022-10-10T05:09:26.282Z,5.30
2022-10-10T05:11:28.761Z,5.30
2022-10-10T05:13:31.247Z,5.30
2022-10-10T05:15:34.977Z,5.30
2022-10-10T05:17:37.600Z,5.30
2022-10-10T05:19:40.085Z,5.30
2022-10-10T05:21:42.576Z,5.30
2022-10-10T05:23:45.093Z,5.20
2022-10-10T05:25:48.806Z,5.20
2022-10-10T05:27:51.288Z,5.10
2022-10-10T05:29:54.975Z,5.20
2022-10-10T05:31:57.445Z,5.10
2022-10-10T05:34:00.093Z,5.10
2022-10-10T05:36:04.537Z,5.10
2022-10-10T05:38:07.018Z,5.10
2022-10-10T05:40:10.425Z,5.10
2022-10-10T05:42:13.522Z,5.10
2022-10-10T05:44:16.026Z,5.10
2022-10-10T05:46:19.743Z,5.10
2022-10-10T05:48:22.469Z,5.10
2022-10-10T05:50:29.990Z,5.10
2022-10-10T05:54:47.190Z,5.00
2022-10-10T05:56:49.687Z,5.10
2022-10-10T05:58:52.168Z,5.10
2022-10-10T06:00:54.704Z,5.20
2022-10-10T06:02:57.779Z,5.20
2022-10-10T06:05:00.313Z,5.20
2022-10-10T06:07:02.814Z,5.30
2022-10-10T06:09:05.339Z,5.30
2022-10-10T06:11:08.081Z,5.20
2022-10-10T06:13:10.855Z,5.20
2022-10-10T06:15:13.429Z,5.20
2022-10-10T06:17:15.878Z,5.20
2022-10-10T06:19:18.370Z,5.10
2022-10-10T06:21:20.870Z,5.20
2022-10-10T06:23:23.374Z,5.40
2022-10-10T06:25:39.338Z,5.40
2022-10-10T06:27:30.198Z,5.50
2022-10-10T06:29:32.726Z,5.50
2022-10-10T06:31:37.598Z,5.60
2022-10-10T06:33:42.649Z,5.60
2022-10-10T06:35:46.141Z,5.70
2022-10-10T06:37:48.641Z,5.70
2022-10-10T06:39:51.477Z,5.80
2022-10-10T06:41:54.065Z,5.90
2022-10-10T06:43:56.714Z,5.90
2022-10-10T06:45:59.417Z,6.00
2022-10-10T06:48:01.947Z,6.10
2022-10-10T06:50:05.010Z,6.10
2022-10-10T06:52:07.501Z,6.20
2022-10-10T06:54:11.285Z,6.20
2022-10-10T06:56:17.090Z,6.30
2022-10-10T06:58:19.565Z,6.40
2022-10-10T07:00:22.027Z,6.60
2022-10-10T07:02:24.590Z,6.90
2022-10-10T07:04:27.157Z,7.00
2022-10-10T07:06:33.877Z,7.30
2022-10-10T07:08:34.154Z,7.60
2022-10-10T07:10:36.722Z,8.00
2022-10-10T07:12:44.257Z,8.50
2022-10-10T07:14:43.506Z,8.90
2022-10-10T07:16:45.983Z,9.40
2022-10-10T07:18:48.439Z,9.80
2022-10-10T07:20:51.050Z,10.40
2022-10-10T07:22:53.829Z,10.80
2022-10-10T07:24:56.537Z,11.00
2022-10-10T07:27:04.880Z,11.10
2022-10-10T07:29:03.407Z,11.30
2022-10-10T07:31:07.363Z,11.50
2022-10-10T07:33:10.211Z,11.70
2022-10-10T07:37:34.106Z,12.00
2022-10-10T07:39:36.853Z,12.20
2022-10-10T07:41:39.594Z,12.20
2022-10-10T07:43:42.314Z,12.30
2022-10-10T07:45:45.059Z,12.50
2022-10-10T07:47:48.154Z,12.60
2022-10-10T07:49:50.972Z,12.80
2022-10-10T07:51:55.953Z,12.90
2022-10-10T07:53:57.968Z,13.00
2022-10-10T07:56:00.458Z,13.10
2022-10-10T07:58:03.193Z,13.20
2022-10-10T08:00:07.343Z,13.30
2022-10-10T08:02:11.811Z,13.30
2022-10-10T08:04:14.371Z,13.30
2022-10-10T08:06:17.269Z,13.40
2022-10-10T08:08:19.782Z,13.40
2022-10-10T08:10:22.265Z,13.50
2022-10-10T08:12:24.923Z,13.50
2022-10-10T08:14:27.455Z,13.50
2022-10-10T08:16:30.003Z,13.60
2022-10-10T08:18:32.448Z,13.60
2022-10-10T08:20:34.952Z,13.80
2022-10-10T08:24:53.733Z,13.90
2022-10-10T08:26:56.250Z,13.90
2022-10-10T08:28:58.718Z,14.00
2022-10-10T08:31:05.425Z,14.00
2022-10-10T08:33:07.433Z,14.10
2022-10-10T08:35:10.002Z,14.20
2022-10-10T08:37:12.537Z,14.20
2022-10-10T08:39:15.962Z,14.30
2022-10-10T08:41:20.797Z,14.40
2022-10-10T08:43:25.413Z,14.40
2022-10-10T08:45:28.300Z,14.40
2022-10-10T08:47:33.413Z,14.40
2022-10-10T08:49:37.293Z,14.50
2022-10-10T08:51:41.209Z,14.60
2022-10-10T08:53:45.539Z,14.60
2022-10-10T08:56:08.715Z,14.70
2022-10-10T08:58:13.512Z,14.80
2022-10-10T09:00:18.138Z,14.90
2022-10-10T09:02:26.345Z,14.90
2022-10-10T09:04:31.768Z,15.00
2022-10-10T09:06:39.114Z,15.10
2022-10-10T09:08:44.802Z,15.20
2022-10-10T09:10:51.840Z,15.20
2022-10-10T09:12:56.749Z,15.30
2022-10-10T09:15:02.685Z,15.50
2022-10-10T09:17:07.757Z,15.60
2022-10-10T09:19:16.092Z,15.70
2022-10-10T09:21:19.210Z,15.80
2022-10-10T09:23:24.030Z,15.80
2022-10-10T09:25:28.674Z,15.80
2022-10-10T09:27:32.979Z,16.00
2022-10-10T09:29:38.530Z,16.00
2022-10-10T09:31:42.800Z,16.00
2022-10-10T09:33:47.609Z,16.10
2022-10-10T09:35:53.721Z,16.20
2022-10-10T09:37:58.538Z,16.30
2022-10-10T09:40:02.766Z,16.40
2022-10-10T09:42:07.263Z,16.50
2022-10-10T09:44:11.290Z,16.60
2022-10-10T09:46:14.130Z,16.80
2022-10-10T09:48:19.246Z,16.80
2022-10-10T09:50:22.191Z,17.00
2022-10-10T09:52:26.191Z,17.30
2022-10-10T09:54:29.026Z,17.40
2022-10-10T09:56:33.290Z,17.60
2022-10-10T09:58:37.857Z,17.80
2022-10-10T10:00:40.481Z,18.00
2022-10-10T10:02:43.143Z,18.10
2022-10-10T10:07:08.414Z,18.30
2022-10-10T10:09:13.528Z,18.30
2022-10-10T10:11:24.759Z,18.70
2022-10-10T10:13:29.479Z,18.90
2022-10-10T10:15:41.558Z,19.00
2022-10-10T10:17:44.246Z,19.20
2022-10-10T10:19:47.208Z,19.00
2022-10-10T10:21:50.610Z,19.00
2022-10-10T10:23:55.336Z,18.90
2022-10-10T10:25:58.672Z,19.10
2022-10-10T10:28:19.442Z,19.20
2022-10-10T10:30:26.175Z,19.30
2022-10-10T10:32:34.203Z,19.30
2022-10-10T10:34:50.084Z,19.30
2022-10-10T10:36:54.519Z,19.40
2022-10-10T10:38:59.471Z,19.30
2022-10-10T10:41:04.103Z,19.30
2022-10-10T10:43:20.707Z,19.40
2022-10-10T10:45:25.033Z,19.30
2022-10-10T10:49:46.040Z,19.00
2022-10-10T10:52:03.004Z,18.90
2022-10-10T10:54:08.551Z,18.90
2022-10-10T10:56:14.338Z,18.90
2022-10-10T11:01:20.992Z,19.00
2022-10-10T11:03:05.871Z,18.80
2022-10-10T11:05:25.126Z,18.70
2022-10-10T11:07:20.293Z,18.70
2022-10-10T11:09:51.215Z,18.80
2022-10-10T11:11:30.603Z,18.80
2022-10-10T11:13:35.077Z,18.80
2022-10-10T11:16:04.932Z,18.80
2022-10-10T11:17:48.349Z,18.90
2022-10-10T11:19:55.184Z,19.00
2022-10-10T11:22:00.754Z,19.20
2022-10-10T11:24:04.854Z,19.20
2022-10-10T11:26:09.243Z,19.40
2022-10-10T11:28:13.301Z,19.40
2022-10-10T11:30:17.161Z,19.50
2022-10-10T11:32:22.021Z,19.50
2022-10-10T11:34:27.079Z,19.40
2022-10-10T11:38:46.943Z,19.30
2022-10-10T11:40:52.842Z,19.20
2022-10-10T11:42:57.793Z,19.00
2022-10-10T11:45:02.122Z,18.90
2022-10-10T11:47:08.284Z,18.90
2022-10-10T11:49:15.378Z,18.90
2022-10-10T11:53:34.990Z,18.80
2022-10-10T11:55:39.268Z,18.70
2022-10-10T11:57:43.654Z,18.70
2022-10-10T11:59:47.995Z,18.90
2022-10-10T12:01:52.338Z,18.90
2022-10-10T12:03:56.603Z,18.90
2022-10-10T12:06:02.128Z,18.90
2022-10-10T12:08:07.263Z,18.90
2022-10-10T12:10:11.835Z,18.90
2022-10-10T12:12:15.961Z,19.00
2022-10-10T12:14:19.807Z,18.90
2022-10-10T12:16:25.893Z,18.90
2022-10-10T12:18:29.347Z,19.00
2022-10-10T12:20:32.930Z,19.20
2022-10-10T12:22:35.634Z,19.10
2022-10-10T12:24:42.860Z,19.10
2022-10-10T12:27:06.391Z,19.10
2022-10-10T12:29:10.730Z,19.10
2022-10-10T12:31:24.945Z,19.00
2022-10-10T12:33:30.675Z,19.20
2022-10-10T12:35:35.088Z,19.10
2022-10-10T12:37:39.380Z,19.20
2022-10-10T12:39:44.223Z,19.20
2022-10-10T12:41:55.927Z,19.30
2022-10-10T12:44:16.447Z,19.30
2022-10-10T12:46:20.902Z,19.50
2022-10-10T12:48:24.080Z,19.40
2022-10-10T12:50:27.415Z,19.40
2022-10-10T12:52:32.093Z,19.30
2022-10-10T12:54:36.511Z,19.20
2022-10-10T12:56:40.746Z,19.10
2022-10-10T12:58:45.014Z,19.10
2022-10-10T13:00:47.903Z,19.00
2022-10-10T13:02:52.267Z,19.00
2022-10-10T13:04:56.311Z,19.00
2022-10-10T13:07:00.619Z,18.90
2022-10-10T13:09:04.127Z,18.90
2022-10-10T13:11:08.102Z,18.90
2022-10-10T13:13:17.533Z,18.90
2022-10-10T13:15:20.751Z,18.80
2022-10-10T13:17:25.042Z,18.90
2022-10-10T13:19:27.576Z,18.90
2022-10-10T13:21:31.505Z,18.90
2022-10-10T13:23:34.710Z,19.00
2022-10-10T13:25:38.037Z,19.00
2022-10-10T13:27:40.570Z,19.00
2022-10-10T13:29:43.258Z,19.00
2022-10-10T13:31:45.878Z,18.90
2022-10-10T13:33:48.897Z,18.90
2022-10-10T13:35:51.420Z,18.90
2022-10-10T13:37:56.166Z,18.90
2022-10-10T13:39:58.870Z,18.90
2022-10-10T13:42:01.816Z,18.90
2022-10-10T13:44:06.461Z,18.90
2022-10-10T13:46:17.927Z,19.00
2022-10-10T13:48:21.775Z,19.20
2022-10-10T13:50:28.611Z,19.30
2022-10-10T13:52:31.184Z,19.40
2022-10-10T13:56:58.457Z,19.30
2022-10-10T13:59:06.941Z,19.20
2022-10-10T14:01:21.114Z,19.20
2022-10-10T14:03:23.943Z,19.10
2022-10-10T14:05:27.332Z,19.00
2022-10-10T14:07:31.379Z,18.90
2022-10-10T14:09:36.515Z,18.90
2022-10-10T14:11:40.891Z,18.90
2022-10-10T14:13:46.081Z,19.00
2022-10-10T14:15:49.254Z,19.10
2022-10-10T14:17:52.116Z,19.10
2022-10-10T14:19:55.305Z,19.20
2022-10-10T14:21:58.059Z,19.30
2022-10-10T14:24:01.554Z,19.30
2022-10-10T14:26:18.094Z,19.30
2022-10-10T14:28:22.297Z,19.20
2022-10-10T14:30:25.166Z,19.10
2022-10-10T14:32:28.116Z,19.10
2022-10-10T14:34:30.603Z,19.00
2022-10-10T14:36:33.280Z,18.90
2022-10-10T14:38:36.068Z,18.80
2022-10-10T14:40:39.474Z,18.80
2022-10-10T14:42:41.988Z,18.70
2022-10-10T14:44:44.614Z,18.70
2022-10-10T14:46:47.066Z,18.70
2022-10-10T14:48:49.682Z,18.70
2022-10-10T14:50:52.191Z,18.60
2022-10-10T14:52:54.903Z,18.70
2022-10-10T14:54:57.428Z,18.70
2022-10-10T14:57:07.217Z,18.70
2022-10-10T14:59:06.431Z,18.70
2022-10-10T15:01:09.389Z,18.80
2022-10-10T15:03:12.999Z,18.80
2022-10-10T15:05:16.234Z,18.90
2022-10-10T15:07:19.159Z,18.90
2022-10-10T15:09:40.561Z,19.00
2022-10-10T15:11:26.792Z,19.00
2022-10-10T15:13:30.489Z,19.10
2022-10-10T15:15:33.145Z,19.00
2022-10-10T15:17:35.930Z,19.00
2022-10-10T15:19:38.500Z,18.90
2022-10-10T15:21:41.128Z,18.90
2022-10-10T15:23:43.670Z,18.80
2022-10-10T15:25:46.209Z,18.70
2022-10-10T15:27:49.883Z,18.60
2022-10-10T15:29:55.263Z,18.60
2022-10-10T15:31:59.968Z,18.50
2022-10-10T15:34:06.013Z,18.50
2022-10-10T15:36:11.561Z,18.50
2022-10-10T15:38:15.816Z,18.50
2022-10-10T15:40:20.224Z,18.40
2022-10-10T15:42:23.795Z,18.40
2022-10-10T15:44:26.982Z,18.40
2022-10-10T15:46:30.061Z,18.40
2022-10-10T15:48:32.639Z,18.30
2022-10-10T15:50:37.153Z,18.30
2022-10-10T15:52:39.628Z,18.30
2022-10-10T15:56:59.781Z,18.20
2022-10-10T15:59:02.488Z,18.10
2022-10-10T16:01:12.354Z,18.00
2022-10-10T16:03:15.009Z,17.90
2022-10-10T16:05:17.611Z,17.80
2022-10-10T16:07:28.219Z,17.80
2022-10-10T16:09:28.693Z,17.70
2022-10-10T16:11:29.034Z,17.60
2022-10-10T16:13:32.635Z,17.60
2022-10-10T16:15:35.237Z,17.60
2022-10-10T16:17:37.722Z,17.50
2022-10-10T16:19:40.300Z,17.40
2022-10-10T16:21:43.511Z,17.40
2022-10-10T16:23:45.982Z,17.30
2022-10-10T16:25:48.508Z,17.20
2022-10-10T16:27:52.097Z,17.20
2022-10-10T16:29:54.770Z,17.10
2022-10-10T16:31:57.270Z,17.10
2022-10-10T16:33:59.848Z,17.00
2022-10-10T16:36:04.210Z,17.00
2022-10-10T16:38:06.691Z,17.00
2022-10-10T16:40:10.213Z,17.00
2022-10-10T16:42:12.739Z,16.90
2022-10-10T16:44:15.360Z,16.90
2022-10-10T16:46:21.334Z,16.80
2022-10-10T16:48:23.847Z,16.80
2022-10-10T16:50:26.358Z,16.70
2022-10-10T16:52:28.844Z,16.60
2022-10-10T16:54:31.339Z,16.40
2022-10-10T16:56:34.261Z,16.20
2022-10-10T16:58:37.437Z,16.10
2022-10-10T17:00:41.953Z,15.90
2022-10-10T17:02:44.450Z,15.80
2022-10-10T17:04:46.969Z,15.70
2022-10-10T17:06:49.478Z,15.60
2022-10-10T17:08:52.803Z,15.50
2022-10-10T17:10:55.286Z,15.50
2022-10-10T17:12:57.839Z,15.50
2022-10-10T17:15:00.982Z,15.40
2022-10-10T17:17:12.152Z,15.40
2022-10-10T17:19:09.867Z,15.30
2022-10-10T17:21:13.086Z,15.30
2022-10-10T17:23:16.210Z,15.10
2022-10-10T17:25:18.789Z,15.10
2022-10-10T17:27:21.307Z,15.00
2022-10-10T17:29:24.228Z,15.00
2022-10-10T17:31:26.819Z,14.90
2022-10-10T17:33:29.309Z,14.90
2022-10-10T17:35:31.840Z,14.80
2022-10-10T17:37:34.343Z,14.80
2022-10-10T17:39:36.822Z,14.80
2022-10-10T17:41:39.403Z,14.70
2022-10-10T17:43:41.960Z,14.70
2022-10-10T17:45:44.558Z,14.70
2022-10-10T17:47:47.087Z,14.70
2022-10-10T17:49:49.609Z,14.70
2022-10-10T17:51:52.135Z,14.70
2022-10-10T17:53:54.625Z,14.60
2022-10-10T17:55:57.111Z,14.60
2022-10-10T17:57:59.627Z,14.60
2022-10-10T18:00:02.402Z,14.60
2022-10-10T18:02:07.984Z,14.60
2022-10-10T18:04:12.911Z,14.50
2022-10-10T18:06:16.877Z,14.40
2022-10-10T18:08:20.329Z,14.30
2022-10-10T18:10:22.937Z,14.20
2022-10-10T18:12:25.469Z,13.90
2022-10-10T18:14:28.045Z,13.80
2022-10-10T18:16:33.172Z,13.70
2022-10-10T18:18:35.693Z,13.70
2022-10-10T18:20:38.391Z,13.50
2022-10-10T18:22:41.005Z,13.40
2022-10-10T18:24:43.482Z,13.30
2022-10-10T18:26:46.005Z,13.20
2022-10-10T18:28:48.920Z,13.10
2022-10-10T18:30:51.434Z,13.10
2022-10-10T18:32:53.947Z,13.00
2022-10-10T18:37:11.511Z,12.90
2022-10-10T18:39:15.950Z,12.90
2022-10-10T18:41:19.358Z,12.80
2022-10-10T18:43:23.635Z,12.80
2022-10-10T18:45:26.218Z,12.80
2022-10-10T18:47:28.705Z,12.80
2022-10-10T18:49:31.291Z,12.70
2022-10-10T18:51:34.078Z,12.70
2022-10-10T18:53:36.981Z,12.60
2022-10-10T18:55:39.474Z,12.60
2022-10-10T18:57:41.983Z,12.60
2022-10-10T18:59:44.554Z,12.60
2022-10-10T19:01:47.402Z,12.60
2022-10-10T19:03:50.180Z,12.60
2022-10-10T19:05:52.718Z,12.60
2022-10-10T19:07:55.192Z,12.50
2022-10-10T19:09:57.722Z,12.50
2022-10-10T19:12:00.219Z,12.60
2022-10-10T19:14:03.795Z,12.60
2022-10-10T19:16:07.277Z,12.60
2022-10-10T19:18:10.482Z,12.60
2022-10-10T19:20:12.986Z,12.60
2022-10-10T19:22:15.487Z,12.70
2022-10-10T19:24:21.413Z,12.70
2022-10-10T19:26:24.262Z,12.70
2022-10-10T19:28:26.819Z,12.70
2022-10-10T19:30:29.482Z,12.60
2022-10-10T19:32:31.995Z,12.70
2022-10-10T19:34:35.195Z,12.50
2022-10-10T19:36:39.814Z,12.60
2022-10-10T19:39:09.573Z,12.50
2022-10-10T19:41:15.849Z,12.50
2022-10-10T19:43:18.589Z,12.50
2022-10-10T19:45:21.068Z,12.50
2022-10-10T19:47:23.897Z,12.40
2022-10-10T19:49:26.350Z,12.40
2022-10-10T19:51:29.070Z,12.40
2022-10-10T19:55:57.101Z,12.40
2022-10-10T19:57:59.587Z,12.30
2022-10-10T20:00:02.282Z,12.40
2022-10-10T20:02:06.727Z,12.30
2022-10-10T20:04:09.191Z,12.30
2022-10-10T20:06:11.713Z,12.30
2022-10-10T20:08:14.322Z,12.20
2022-10-10T20:10:17.170Z,12.20
2022-10-10T20:12:19.700Z,12.20
2022-10-10T20:14:32.903Z,12.20
2022-10-10T20:16:37.416Z,12.10
2022-10-10T20:18:41.070Z,12.20
2022-10-10T20:20:44.141Z,12.10
2022-10-10T20:22:46.670Z,12.10
2022-10-10T20:24:49.186Z,12.10
2022-10-10T20:26:51.689Z,12.10
2022-10-10T20:28:55.410Z,12.10
2022-10-10T20:30:57.952Z,12.00
2022-10-10T20:33:00.555Z,12.00
2022-10-10T20:35:03.111Z,12.00
2022-10-10T20:37:05.734Z,12.00
2022-10-10T20:39:09.226Z,12.00
2022-10-10T20:41:11.835Z,11.90
2022-10-10T20:43:15.886Z,12.00
2022-10-10T20:45:18.362Z,11.80
2022-10-10T20:47:20.938Z,11.70
2022-10-10T20:49:23.543Z,11.70
2022-10-10T20:51:26.911Z,11.70
2022-10-10T20:53:29.394Z,11.70
2022-10-10T20:55:48.447Z,11.70
2022-10-10T20:57:52.460Z,11.70
2022-10-10T20:59:54.940Z,11.70
2022-10-10T21:01:57.501Z,11.60
2022-10-10T21:04:00.569Z,11.60
2022-10-10T21:06:04.607Z,11.50
2022-10-10T21:08:08.819Z,11.50
2022-10-10T21:10:11.394Z,11.40
2022-10-10T21:12:13.887Z,11.40
2022-10-10T21:14:16.384Z,11.30
2022-10-10T21:16:19.485Z,11.30
2022-10-10T21:18:22.203Z,11.20
2022-10-10T21:20:24.807Z,11.20
2022-10-10T21:22:27.325Z,11.10
2022-10-10T21:24:29.818Z,11.10
2022-10-10T21:26:32.517Z,11.00
2022-10-10T21:28:35.332Z,10.90
2022-10-10T21:30:38.111Z,10.90
2022-10-10T21:32:40.624Z,10.90
2022-10-10T21:34:43.124Z,10.80
2022-10-10T21:36:45.891Z,10.70
2022-10-10T21:38:48.478Z,10.70
2022-10-10T21:40:51.214Z,10.70
2022-10-10T21:42:53.718Z,10.60
2022-10-10T21:44:56.219Z,10.60
2022-10-10T21:46:58.723Z,10.40
2022-10-10T21:49:02.300Z,10.40
2022-10-10T21:51:05.086Z,10.30
2022-10-10T21:53:07.998Z,10.30
2022-10-10T21:55:10.540Z,10.20
2022-10-10T21:57:13.007Z,10.20
2022-10-10T21:59:15.522Z,10.20
2022-10-10T22:01:18.965Z,10.20
2022-10-10T22:03:21.614Z,10.20
2022-10-10T22:05:24.118Z,10.10
2022-10-10T22:07:26.605Z,10.10
2022-10-10T22:09:29.122Z,10.10
2022-10-10T22:11:32.241Z,10.20
2022-10-10T22:13:34.764Z,10.10
2022-10-10T22:15:37.438Z,10.00
2022-10-10T22:17:39.911Z,10.00
2022-10-10T22:19:42.530Z,10.00
2022-10-10T22:21:45.009Z,10.00
2022-10-10T22:23:47.514Z,9.90
2022-10-10T22:25:50.804Z,9.80
2022-10-10T22:27:57.104Z,9.70
2022-10-10T22:29:57.746Z,9.70
2022-10-10T22:32:00.337Z,9.60
2022-10-10T22:34:03.354Z,9.60
2022-10-10T22:36:07.506Z,9.60
2022-10-10T22:38:10.479Z,9.50
2022-10-10T22:40:13.176Z,9.50
2022-10-10T22:42:16.009Z,9.50
2022-10-10T22:44:20.320Z,9.40
2022-10-10T22:46:24.734Z,9.40
2022-10-10T22:48:27.321Z,9.40
2022-10-10T22:50:30.629Z,9.40
2022-10-10T22:52:33.146Z,9.40
2022-10-10T22:54:35.689Z,9.50
2022-10-10T22:56:38.208Z,9.40
2022-10-10T22:58:40.654Z,9.40
2022-10-10T23:00:43.407Z,9.50
2022-10-10T23:02:46.058Z,9.40
2022-10-10T23:04:48.722Z,9.40
2022-10-10T23:06:51.193Z,9.30
2022-10-10T23:08:53.689Z,9.30
2022-10-10T23:10:56.165Z,9.30
2022-10-10T23:12:58.617Z,9.40
2022-10-10T23:15:01.129Z,9.30
2022-10-10T23:17:03.924Z,9.40
2022-10-10T23:19:06.406Z,9.30
2022-10-10T23:21:08.924Z,9.30
2022-10-10T23:23:11.390Z,9.30
2022-10-10T23:25:13.917Z,9.30
2022-10-10T23:27:16.462Z,9.30
2022-10-10T23:29:19.097Z,9.30
2022-10-10T23:31:21.693Z,9.30
2022-10-10T23:33:24.205Z,9.30
2022-10-10T23:35:26.703Z,9.30
2022-10-10T23:37:29.207Z,9.30
2022-10-10T23:39:31.669Z,9.30
2022-10-10T23:41:34.288Z,9.30
2022-10-10T23:43:36.957Z,9.30
2022-10-10T23:45:40.673Z,9.40
2022-10-10T23:47:43.183Z,9.20
2022-10-10T23:49:45.675Z,9.30
2022-10-10T23:51:48.166Z,9.30
2022-10-10T23:53:50.650Z,9.30
2022-10-10T23:55:53.146Z,9.20
2022-10-10T23:57:57.598Z,9.20
